createdAt,value
2023-04-30T00:03:37.750Z,11.02
2023-04-30T00:08:42.105Z,10.99
2023-04-30T00:13:46.310Z,10.94
2023-04-30T00:18:50.168Z,10.90
2023-04-30T00:23:54.288Z,10.92
2023-04-30T00:28:58.525Z,10.91
2023-04-30T00:34:02.453Z,10.89
2023-04-30T00:39:06.795Z,10.86
2023-04-30T00:44:10.436Z,10.85
2023-04-30T00:49:14.435Z,10.83
2023-04-30T00:54:20.126Z,10.80
2023-04-30T00:59:24.560Z,10.77
2023-04-30T01:04:28.802Z,10.74
2023-04-30T01:09:33.052Z,10.72
2023-04-30T01:14:45.666Z,10.74
2023-04-30T01:19:49.783Z,10.74
2023-04-30T01:25:13.872Z,10.71
2023-04-30T01:30:18.958Z,10.67
2023-04-30T01:35:37.326Z,10.62
2023-04-30T01:40:46.714Z,10.63
2023-04-30T01:46:02.515Z,10.61
2023-04-30T01:51:22.090Z,10.59
2023-04-30T01:56:33.172Z,10.57
2023-04-30T02:06:08.583Z,10.58
2023-04-30T02:11:15.907Z,10.53
2023-04-30T02:16:23.274Z,10.50
2023-04-30T02:21:31.755Z,10.49
2023-04-30T02:26:38.995Z,10.50
2023-04-30T02:31:46.481Z,10.48
2023-04-30T02:36:53.868Z,10.44
2023-04-30T02:42:00.974Z,10.40
2023-04-30T02:47:12.947Z,10.40
2023-04-30T02:52:27.449Z,10.39
2023-04-30T02:57:36.192Z,10.38
2023-04-30T03:02:43.498Z,10.37
2023-04-30T03:07:51.053Z,10.38
2023-04-30T03:13:00.066Z,10.38
2023-04-30T03:18:08.009Z,10.36
2023-04-30T03:23:15.293Z,10.34
2023-04-30T03:28:22.733Z,10.34
2023-04-30T03:33:30.640Z,10.30
2023-04-30T03:38:38.017Z,10.27
2023-04-30T03:43:45.323Z,10.26
2023-04-30T03:48:53.132Z,10.23
2023-04-30T03:54:00.761Z,10.18
2023-04-30T03:59:08.334Z,10.16
2023-04-30T04:04:16.696Z,10.14
2023-04-30T04:09:24.201Z,10.13
2023-04-30T04:14:31.525Z,10.13
2023-04-30T04:19:38.710Z,10.13
2023-04-30T04:24:46.129Z,10.11
2023-04-30T04:29:55.364Z,10.12
2023-04-30T04:35:03.297Z,10.13
2023-04-30T04:40:12.706Z,10.11
2023-04-30T04:45:21.121Z,10.07
2023-04-30T04:50:28.949Z,10.02
2023-04-30T04:55:36.209Z,9.99
2023-04-30T05:00:43.988Z,9.96
2023-04-30T05:05:52.034Z,9.96
2023-04-30T05:10:59.452Z,9.95
2023-04-30T05:16:07.915Z,9.90
2023-04-30T05:21:15.707Z,9.86
2023-04-30T05:26:24.735Z,9.82
2023-04-30T05:31:32.783Z,9.72
2023-04-30T05:36:41.993Z,9.62
2023-04-30T05:41:51.097Z,9.51
2023-04-30T05:46:59.425Z,9.43
2023-04-30T05:52:07.566Z,9.36
2023-04-30T05:57:15.260Z,9.23
2023-04-30T06:02:23.319Z,9.15
2023-04-30T06:07:30.890Z,9.08
2023-04-30T06:12:38.470Z,9.05
2023-04-30T06:17:45.715Z,9.03
2023-04-30T06:22:53.303Z,8.92
2023-04-30T06:28:00.715Z,8.78
2023-04-30T06:33:08.463Z,8.69
2023-04-30T06:38:16.329Z,8.64
2023-04-30T06:43:24.690Z,8.61
2023-04-30T06:48:32.720Z,8.57
2023-04-30T06:53:41.057Z,8.57
2023-04-30T06:58:50.325Z,8.56
2023-04-30T07:03:57.929Z,8.54
2023-04-30T07:09:05.686Z,8.48
2023-04-30T07:14:13.453Z,8.46
2023-04-30T07:19:20.800Z,8.53
2023-04-30T07:24:28.123Z,8.61
2023-04-30T07:29:35.280Z,8.67
2023-04-30T07:34:42.720Z,8.76
2023-04-30T07:39:50.770Z,8.88
2023-04-30T07:44:58.348Z,9.03
2023-04-30T07:50:06.274Z,9.24
2023-04-30T07:55:14.411Z,9.47
2023-04-30T08:00:22.055Z,9.68
2023-04-30T08:05:30.138Z,9.83
2023-04-30T08:10:37.567Z,9.98
2023-04-30T08:15:45.045Z,10.16
2023-04-30T08:20:52.243Z,10.43
2023-04-30T08:25:59.557Z,10.67
2023-04-30T08:31:07.416Z,10.78
2023-04-30T08:36:14.821Z,10.93
2023-04-30T08:41:27.446Z,11.36
2023-04-30T08:46:38.052Z,11.75
2023-04-30T08:51:46.124Z,12.06
2023-04-30T08:56:53.413Z,12.33
2023-04-30T09:02:01.622Z,12.55
2023-04-30T09:07:09.713Z,12.74
2023-04-30T09:12:19.960Z,12.86
2023-04-30T09:17:28.565Z,12.89
2023-04-30T09:22:36.933Z,13.00
2023-04-30T09:27:44.975Z,13.05
2023-04-30T09:32:59.438Z,13.04
2023-04-30T09:38:07.118Z,12.99
2023-04-30T09:43:15.593Z,13.11
2023-04-30T09:48:25.668Z,13.22
2023-04-30T09:53:34.963Z,13.17
2023-04-30T09:58:45.565Z,13.17
2023-04-30T10:03:53.729Z,13.39
2023-04-30T10:09:02.453Z,13.57
2023-04-30T10:14:13.963Z,13.63
2023-04-30T10:19:24.910Z,13.58
2023-04-30T10:24:33.346Z,13.69
2023-04-30T10:29:40.582Z,13.81
2023-04-30T10:34:56.851Z,13.88
2023-04-30T10:40:06.071Z,13.88
2023-04-30T10:45:15.186Z,13.76
2023-04-30T10:50:26.554Z,13.79
2023-04-30T10:55:40.210Z,13.82
2023-04-30T11:01:01.717Z,13.89
2023-04-30T11:06:20.186Z,13.91
2023-04-30T11:11:27.796Z,14.08
2023-04-30T11:16:37.967Z,14.21
2023-04-30T11:22:05.751Z,14.39
2023-04-30T11:27:15.891Z,14.38
2023-04-30T11:32:24.939Z,14.45
2023-04-30T11:37:36.608Z,14.58
2023-04-30T11:42:46.359Z,14.62
2023-04-30T11:47:56.248Z,14.59
2023-04-30T11:53:05.546Z,14.59
2023-04-30T12:04:05.464Z,14.77
2023-04-30T12:09:13.277Z,14.81
2023-04-30T12:14:20.557Z,14.84
2023-04-30T12:19:28.139Z,14.84
2023-04-30T12:24:35.743Z,14.88
2023-04-30T12:29:45.708Z,15.01
2023-04-30T12:34:53.108Z,15.09
2023-04-30T12:40:00.578Z,15.18
2023-04-30T12:45:09.765Z,15.18
2023-04-30T12:50:17.212Z,15.18
2023-04-30T12:55:27.432Z,15.24
2023-04-30T13:00:46.630Z,15.27
2023-04-30T13:05:55.234Z,15.28
2023-04-30T13:11:02.580Z,15.33
2023-04-30T13:16:10.229Z,15.46
2023-04-30T13:21:17.737Z,15.47
2023-04-30T13:26:26.563Z,15.30
2023-04-30T13:31:34.738Z,15.17
2023-04-30T13:36:42.030Z,15.20
2023-04-30T13:41:51.044Z,15.28
2023-04-30T13:46:58.622Z,15.23
2023-04-30T13:52:06.509Z,15.23
2023-04-30T13:57:13.978Z,15.26
2023-04-30T14:02:21.682Z,15.28
2023-04-30T14:07:29.521Z,15.27
2023-04-30T14:12:38.588Z,15.28
2023-04-30T14:17:46.190Z,15.34
2023-04-30T14:22:54.415Z,15.24
2023-04-30T14:28:01.878Z,15.26
2023-04-30T14:33:11.375Z,15.30
2023-04-30T14:38:18.954Z,15.20
2023-04-30T14:43:26.420Z,15.21
2023-04-30T14:48:34.412Z,15.20
2023-04-30T14:53:42.361Z,15.23
2023-04-30T14:58:49.792Z,15.30
2023-04-30T15:03:57.440Z,15.30
2023-04-30T15:09:05.364Z,15.33
2023-04-30T15:14:12.959Z,15.27
2023-04-30T15:19:20.478Z,15.27
2023-04-30T15:24:27.729Z,15.26
2023-04-30T15:29:35.328Z,15.22
2023-04-30T15:34:42.848Z,15.12
2023-04-30T15:39:50.124Z,15.06
2023-04-30T15:44:57.678Z,15.04
2023-04-30T15:53:44.339Z,14.94
2023-04-30T15:58:51.656Z,14.76
2023-04-30T16:04:00.691Z,14.69
2023-04-30T16:09:09.182Z,14.53
2023-04-30T16:14:16.942Z,14.43
2023-04-30T16:19:24.375Z,14.37
2023-04-30T16:24:31.726Z,14.31
2023-04-30T16:29:39.049Z,14.23
2023-04-30T16:34:48.370Z,14.10
2023-04-30T16:39:56.574Z,14.03
2023-04-30T16:45:05.740Z,13.94
2023-04-30T16:50:13.804Z,13.84
2023-04-30T16:55:21.675Z,13.79
2023-04-30T17:00:28.906Z,13.71
2023-04-30T17:05:36.002Z,13.61
2023-04-30T17:10:43.475Z,13.48
2023-04-30T17:15:50.885Z,13.36
2023-04-30T17:20:58.247Z,13.22
2023-04-30T17:26:05.796Z,13.11
2023-04-30T17:31:13.818Z,12.99
2023-04-30T17:36:21.149Z,12.86
2023-04-30T17:41:30.655Z,12.73
2023-04-30T17:54:34.108Z,12.42
2023-04-30T17:59:41.884Z,12.25
2023-04-30T18:04:49.516Z,12.12
2023-04-30T18:09:59.353Z,11.96
2023-04-30T18:15:08.650Z,11.81
2023-04-30T18:20:16.097Z,11.67
2023-04-30T18:25:23.803Z,11.51
2023-04-30T18:30:31.304Z,11.38
2023-04-30T18:35:38.356Z,11.26
2023-04-30T18:40:45.716Z,11.15
2023-04-30T18:45:53.290Z,11.03
2023-04-30T18:51:00.717Z,10.92
2023-04-30T18:56:09.479Z,10.82
2023-04-30T19:01:18.214Z,10.73
2023-04-30T19:06:25.571Z,10.67
2023-04-30T19:11:35.643Z,10.60
2023-04-30T19:16:42.905Z,10.54
2023-04-30T19:21:50.292Z,10.48
2023-04-30T19:26:57.861Z,10.41
2023-04-30T19:32:05.244Z,10.33
2023-04-30T19:37:12.342Z,10.25
2023-04-30T19:42:17.790Z,10.19
2023-04-30T19:47:25.924Z,10.12
2023-04-30T19:52:33.641Z,10.04
2023-04-30T19:57:40.843Z,9.97
2023-04-30T20:02:48.165Z,9.91
2023-04-30T20:07:55.750Z,9.84
2023-04-30T20:13:03.188Z,9.77
2023-04-30T20:18:11.070Z,9.67
2023-04-30T20:23:20.550Z,9.62
2023-04-30T20:28:27.698Z,9.53
2023-04-30T20:33:35.545Z,9.29
2023-04-30T20:38:42.741Z,8.95
2023-04-30T20:43:49.935Z,8.65
2023-04-30T20:49:04.035Z,8.45
2023-04-30T20:54:11.382Z,8.37
2023-04-30T20:59:18.729Z,8.31
2023-04-30T21:04:25.950Z,8.22
2023-04-30T21:09:35.766Z,8.12
2023-04-30T21:14:42.967Z,7.97
2023-04-30T21:19:50.137Z,7.79
2023-04-30T21:24:57.686Z,7.59
2023-04-30T21:30:05.983Z,7.33
2023-04-30T21:35:13.475Z,7.15
2023-04-30T21:40:20.957Z,6.99
2023-04-30T21:45:28.187Z,6.84
2023-04-30T21:50:36.609Z,6.60
2023-04-30T21:55:43.780Z,6.31
2023-04-30T22:00:49.840Z,6.05
2023-04-30T22:05:57.320Z,5.82
2023-04-30T22:11:05.096Z,5.63
2023-04-30T22:16:12.840Z,5.42
2023-04-30T22:21:19.995Z,5.25
2023-04-30T22:26:27.925Z,5.09
2023-04-30T22:31:35.133Z,4.99
2023-04-30T22:36:42.539Z,4.94
2023-04-30T22:41:48.489Z,4.85
2023-04-30T22:46:58.289Z,4.81
2023-04-30T22:52:05.721Z,4.79
2023-04-30T22:57:12.916Z,4.71
2023-04-30T23:02:19.327Z,4.70
2023-04-30T23:07:26.898Z,4.69
2023-04-30T23:12:35.249Z,4.66
2023-04-30T23:17:42.496Z,4.57
2023-04-30T23:22:48.106Z,4.55
2023-04-30T23:27:55.434Z,4.54
2023-04-30T23:33:01.017Z,4.47
2023-04-30T23:38:08.237Z,4.33
2023-04-30T23:43:15.347Z,4.14
2023-04-30T23:48:22.679Z,4.03
2023-04-30T23:53:30.064Z,3.93
2023-04-30T23:58:37.586Z,3.87
